sensor_id;sensor_type;location;lat;lon;timestamp;temperature;humidity
52615;DHT22;38508;53.158;6.614;2023-03-01T00:01:29;3.60;99.90
52615;DHT22;38508;53.158;6.614;2023-03-01T00:03:56;3.60;99.90
52615;DHT22;38508;53.158;6.614;2023-03-01T00:06:22;3.60;99.90
52615;DHT22;38508;53.158;6.614;2023-03-01T00:08:48;3.70;99.90
52615;DHT22;38508;53.158;6.614;2023-03-01T00:11:17;3.70;99.90
52615;DHT22;38508;53.158;6.614;2023-03-01T00:13:44;3.70;99.90
52615;DHT22;38508;53.158;6.614;2023-03-01T00:16:16;3.60;99.90
52615;DHT22;38508;53.158;6.614;2023-03-01T00:18:42;3.60;99.90
52615;DHT22;38508;53.158;6.614;2023-03-01T00:21:08;3.40;99.90
52615;DHT22;38508;53.158;6.614;2023-03-01T00:23:34;3.40;99.90
52615;DHT22;38508;53.158;6.614;2023-03-01T00:26:00;3.40;99.90
52615;DHT22;38508;53.158;6.614;2023-03-01T00:28:26;3.20;99.90
52615;DHT22;38508;53.158;6.614;2023-03-01T00:30:52;3.20;99.90
52615;DHT22;38508;53.158;6.614;2023-03-01T00:33:18;3.30;99.90
52615;DHT22;38508;53.158;6.614;2023-03-01T00:35:44;3.10;99.90
52615;DHT22;38508;53.158;6.614;2023-03-01T00:38:10;3.30;99.90
52615;DHT22;38508;53.158;6.614;2023-03-01T00:40:36;3.30;99.90
52615;DHT22;38508;53.158;6.614;2023-03-01T00:43:03;3.30;99.90
52615;DHT22;38508;53.158;6.614;2023-03-01T00:45:29;3.20;99.90
52615;DHT22;38508;53.158;6.614;2023-03-01T00:47:56;3.20;99.90
52615;DHT22;38508;53.158;6.614;2023-03-01T00:50:23;3.20;99.90
52615;DHT22;38508;53.158;6.614;2023-03-01T00:52:55;3.20;99.90
52615;DHT22;38508;53.158;6.614;2023-03-01T00:55:21;3.10;99.90
52615;DHT22;38508;53.158;6.614;2023-03-01T00:57:47;3.10;99.90
52615;DHT22;38508;53.158;6.614;2023-03-01T01:00:13;3.10;99.90
52615;DHT22;38508;53.158;6.614;2023-03-01T01:02:40;3.10;99.90
52615;DHT22;38508;53.158;6.614;2023-03-01T01:05:06;3.00;99.90
52615;DHT22;38508;53.158;6.614;2023-03-01T01:07:32;3.10;99.90
52615;DHT22;38508;53.158;6.614;2023-03-01T01:09:58;3.10;99.90
52615;DHT22;38508;53.158;6.614;2023-03-01T01:12:23;3.00;99.90
52615;DHT22;38508;53.158;6.614;2023-03-01T01:14:49;3.10;99.90
52615;DHT22;38508;53.158;6.614;2023-03-01T01:17:15;3.00;99.90
52615;DHT22;38508;53.158;6.614;2023-03-01T01:19:40;2.90;99.90
52615;DHT22;38508;53.158;6.614;2023-03-01T01:22:06;2.80;99.90
52615;DHT22;38508;53.158;6.614;2023-03-01T01:24:32;2.90;99.90
52615;DHT22;38508;53.158;6.614;2023-03-01T01:26:57;2.90;99.90
52615;DHT22;38508;53.158;6.614;2023-03-01T01:29:23;3.00;99.90
52615;DHT22;38508;53.158;6.614;2023-03-01T01:31:49;2.90;99.90
52615;DHT22;38508;53.158;6.614;2023-03-01T01:34:17;3.00;99.90
52615;DHT22;38508;53.158;6.614;2023-03-01T01:36:43;2.90;99.90
52615;DHT22;38508;53.158;6.614;2023-03-01T01:39:10;2.90;99.90
52615;DHT22;38508;53.158;6.614;2023-03-01T01:41:40;2.90;99.90
52615;DHT22;38508;53.158;6.614;2023-03-01T01:46:41;2.80;99.90
52615;DHT22;38508;53.158;6.614;2023-03-01T01:51:43;2.70;99.90
52615;DHT22;38508;53.158;6.614;2023-03-01T01:54:18;2.70;99.90
52615;DHT22;38508;53.158;6.614;2023-03-01T01:56:49;2.60;99.90
52615;DHT22;38508;53.158;6.614;2023-03-01T01:59:18;2.60;99.90
52615;DHT22;38508;53.158;6.614;2023-03-01T02:01:44;2.60;99.90
52615;DHT22;38508;53.158;6.614;2023-03-01T02:04:10;2.70;99.90
52615;DHT22;38508;53.158;6.614;2023-03-01T02:06:41;2.70;99.90
52615;DHT22;38508;53.158;6.614;2023-03-01T02:09:13;2.70;99.90
52615;DHT22;38508;53.158;6.614;2023-03-01T02:11:40;2.70;99.90
52615;DHT22;38508;53.158;6.614;2023-03-01T02:14:06;2.70;99.90
52615;DHT22;38508;53.158;6.614;2023-03-01T02:16:32;2.70;99.90
52615;DHT22;38508;53.158;6.614;2023-03-01T02:18:58;2.60;99.90
52615;DHT22;38508;53.158;6.614;2023-03-01T02:24:29;2.60;99.90
52615;DHT22;38508;53.158;6.614;2023-03-01T02:26:58;2.60;99.90
52615;DHT22;38508;53.158;6.614;2023-03-01T02:29:24;2.60;99.90
52615;DHT22;38508;53.158;6.614;2023-03-01T02:31:52;2.50;99.90
52615;DHT22;38508;53.158;6.614;2023-03-01T02:34:23;2.50;99.90
52615;DHT22;38508;53.158;6.614;2023-03-01T02:37:12;2.50;99.90
52615;DHT22;38508;53.158;6.614;2023-03-01T02:39:44;2.40;99.90
52615;DHT22;38508;53.158;6.614;2023-03-01T02:42:14;2.40;99.90
52615;DHT22;38508;53.158;6.614;2023-03-01T02:44:40;2.30;99.90
52615;DHT22;38508;53.158;6.614;2023-03-01T02:47:06;2.30;99.90
52615;DHT22;38508;53.158;6.614;2023-03-01T02:49:35;2.20;99.90
52615;DHT22;38508;53.158;6.614;2023-03-01T02:57:14;2.10;99.90
52615;DHT22;38508;53.158;6.614;2023-03-01T02:59:41;2.00;99.90
52615;DHT22;38508;53.158;6.614;2023-03-01T03:02:28;2.10;99.90
52615;DHT22;38508;53.158;6.614;2023-03-01T03:05:16;2.10;99.90
52615;DHT22;38508;53.158;6.614;2023-03-01T03:07:44;2.10;99.90
52615;DHT22;38508;53.158;6.614;2023-03-01T03:10:17;2.10;99.90
52615;DHT22;38508;53.158;6.614;2023-03-01T03:12:52;2.10;99.90
52615;DHT22;38508;53.158;6.614;2023-03-01T03:15:19;2.00;99.90
52615;DHT22;38508;53.158;6.614;2023-03-01T03:17:46;2.00;99.90
52615;DHT22;38508;53.158;6.614;2023-03-01T03:20:14;2.00;99.90
52615;DHT22;38508;53.158;6.614;2023-03-01T03:22:50;1.90;99.90
52615;DHT22;38508;53.158;6.614;2023-03-01T03:25:17;2.00;99.90
52615;DHT22;38508;53.158;6.614;2023-03-01T03:27:44;1.90;99.90
52615;DHT22;38508;53.158;6.614;2023-03-01T03:30:13;1.90;99.90
52615;DHT22;38508;53.158;6.614;2023-03-01T03:32:40;1.90;99.90
52615;DHT22;38508;53.158;6.614;2023-03-01T03:35:07;2.00;99.90
52615;DHT22;38508;53.158;6.614;2023-03-01T03:37:40;1.90;99.90
52615;DHT22;38508;53.158;6.614;2023-03-01T03:40:25;1.90;99.90
52615;DHT22;38508;53.158;6.614;2023-03-01T03:42:50;1.80;99.90
52615;DHT22;38508;53.158;6.614;2023-03-01T03:45:17;1.80;99.90
52615;DHT22;38508;53.158;6.614;2023-03-01T03:47:43;1.80;99.90
52615;DHT22;38508;53.158;6.614;2023-03-01T03:50:13;1.80;99.90
52615;DHT22;38508;53.158;6.614;2023-03-01T03:52:40;1.80;99.90
52615;DHT22;38508;53.158;6.614;2023-03-01T03:55:07;1.80;99.90
52615;DHT22;38508;53.158;6.614;2023-03-01T03:57:41;1.80;99.90
52615;DHT22;38508;53.158;6.614;2023-03-01T04:00:09;1.80;99.90
52615;DHT22;38508;53.158;6.614;2023-03-01T04:02:42;1.80;99.90
52615;DHT22;38508;53.158;6.614;2023-03-01T04:05:10;1.60;99.90
52615;DHT22;38508;53.158;6.614;2023-03-01T04:07:37;1.60;99.90
52615;DHT22;38508;53.158;6.614;2023-03-01T04:10:08;1.60;99.90
52615;DHT22;38508;53.158;6.614;2023-03-01T04:12:35;1.70;99.90
52615;DHT22;38508;53.158;6.614;2023-03-01T04:15:05;1.70;99.90
52615;DHT22;38508;53.158;6.614;2023-03-01T04:17:41;1.60;99.90
52615;DHT22;38508;53.158;6.614;2023-03-01T04:20:13;1.60;99.90
52615;DHT22;38508;53.158;6.614;2023-03-01T04:22:40;1.60;99.90
52615;DHT22;38508;53.158;6.614;2023-03-01T04:25:06;1.60;99.90
52615;DHT22;38508;53.158;6.614;2023-03-01T04:27:35;1.60;99.90
52615;DHT22;38508;53.158;6.614;2023-03-01T04:30:03;1.60;99.90
52615;DHT22;38508;53.158;6.614;2023-03-01T04:32:29;1.60;99.90
52615;DHT22;38508;53.158;6.614;2023-03-01T04:34:54;1.60;99.90
52615;DHT22;38508;53.158;6.614;2023-03-01T04:37:20;1.60;99.90
52615;DHT22;38508;53.158;6.614;2023-03-01T04:39:46;1.60;99.90
52615;DHT22;38508;53.158;6.614;2023-03-01T04:42:13;1.60;99.90
52615;DHT22;38508;53.158;6.614;2023-03-01T04:44:39;1.60;99.90
52615;DHT22;38508;53.158;6.614;2023-03-01T04:47:05;1.60;99.90
52615;DHT22;38508;53.158;6.614;2023-03-01T04:49:31;1.60;99.90
52615;DHT22;38508;53.158;6.614;2023-03-01T04:51:57;1.60;99.90
52615;DHT22;38508;53.158;6.614;2023-03-01T04:54:33;1.60;99.90
52615;DHT22;38508;53.158;6.614;2023-03-01T04:56:59;1.60;99.90
52615;DHT22;38508;53.158;6.614;2023-03-01T04:59:25;1.50;99.90
52615;DHT22;38508;53.158;6.614;2023-03-01T05:01:52;1.60;99.90
52615;DHT22;38508;53.158;6.614;2023-03-01T05:04:18;1.60;99.90
52615;DHT22;38508;53.158;6.614;2023-03-01T05:06:44;1.60;99.90
52615;DHT22;38508;53.158;6.614;2023-03-01T05:09:10;1.50;99.90
52615;DHT22;38508;53.158;6.614;2023-03-01T05:11:37;1.40;99.90
52615;DHT22;38508;53.158;6.614;2023-03-01T05:14:07;1.40;99.90
52615;DHT22;38508;53.158;6.614;2023-03-01T05:16:33;1.40;99.90
52615;DHT22;38508;53.158;6.614;2023-03-01T05:18:59;1.40;99.90
52615;DHT22;38508;53.158;6.614;2023-03-01T05:21:25;1.40;99.90
52615;DHT22;38508;53.158;6.614;2023-03-01T05:23:51;1.30;99.90
52615;DHT22;38508;53.158;6.614;2023-03-01T05:26:19;1.40;99.90
52615;DHT22;38508;53.158;6.614;2023-03-01T05:28:47;1.30;99.90
52615;DHT22;38508;53.158;6.614;2023-03-01T05:31:13;1.40;99.90
52615;DHT22;38508;53.158;6.614;2023-03-01T05:33:40;1.40;99.90
52615;DHT22;38508;53.158;6.614;2023-03-01T05:36:07;1.40;99.90
52615;DHT22;38508;53.158;6.614;2023-03-01T05:38:33;1.40;99.90
52615;DHT22;38508;53.158;6.614;2023-03-01T05:40:59;1.40;99.90
52615;DHT22;38508;53.158;6.614;2023-03-01T05:43:25;1.40;99.90
52615;DHT22;38508;53.158;6.614;2023-03-01T05:45:51;1.40;99.90
52615;DHT22;38508;53.158;6.614;2023-03-01T05:48:17;1.40;99.90
52615;DHT22;38508;53.158;6.614;2023-03-01T05:50:45;1.30;99.90
52615;DHT22;38508;53.158;6.614;2023-03-01T05:53:17;1.40;99.90
52615;DHT22;38508;53.158;6.614;2023-03-01T05:55:45;1.30;99.90
52615;DHT22;38508;53.158;6.614;2023-03-01T05:58:18;1.30;99.90
52615;DHT22;38508;53.158;6.614;2023-03-01T06:00:46;1.20;99.90
52615;DHT22;38508;53.158;6.614;2023-03-01T06:03:14;1.20;99.90
52615;DHT22;38508;53.158;6.614;2023-03-01T06:05:40;1.10;99.90
52615;DHT22;38508;53.158;6.614;2023-03-01T06:08:07;1.20;99.90
52615;DHT22;38508;53.158;6.614;2023-03-01T06:10:34;1.20;99.90
52615;DHT22;38508;53.158;6.614;2023-03-01T06:12:59;1.10;99.90
52615;DHT22;38508;53.158;6.614;2023-03-01T06:15:25;1.10;99.90
52615;DHT22;38508;53.158;6.614;2023-03-01T06:17:53;1.10;99.90
52615;DHT22;38508;53.158;6.614;2023-03-01T06:20:23;1.10;99.90
52615;DHT22;38508;53.158;6.614;2023-03-01T06:22:50;1.00;99.90
52615;DHT22;38508;53.158;6.614;2023-03-01T06:25:21;1.00;99.90
52615;DHT22;38508;53.158;6.614;2023-03-01T06:27:47;1.00;99.90
52615;DHT22;38508;53.158;6.614;2023-03-01T06:30:16;0.90;99.90
52615;DHT22;38508;53.158;6.614;2023-03-01T06:32:42;0.90;99.90
52615;DHT22;38508;53.158;6.614;2023-03-01T06:35:13;0.90;99.90
52615;DHT22;38508;53.158;6.614;2023-03-01T06:37:40;0.90;99.90
52615;DHT22;38508;53.158;6.614;2023-03-01T06:40:07;0.90;99.90
52615;DHT22;38508;53.158;6.614;2023-03-01T06:42:36;0.90;99.90
52615;DHT22;38508;53.158;6.614;2023-03-01T06:45:03;0.90;99.90
52615;DHT22;38508;53.158;6.614;2023-03-01T06:47:29;1.00;99.90
52615;DHT22;38508;53.158;6.614;2023-03-01T06:49:54;1.00;99.90
52615;DHT22;38508;53.158;6.614;2023-03-01T06:52:20;1.00;99.90
52615;DHT22;38508;53.158;6.614;2023-03-01T06:54:46;1.10;99.90
52615;DHT22;38508;53.158;6.614;2023-03-01T06:57:11;1.00;99.90
52615;DHT22;38508;53.158;6.614;2023-03-01T06:59:37;1.00;99.90
52615;DHT22;38508;53.158;6.614;2023-03-01T07:02:02;1.10;99.90
52615;DHT22;38508;53.158;6.614;2023-03-01T07:04:28;1.10;99.90
52615;DHT22;38508;53.158;6.614;2023-03-01T07:06:56;1.10;99.90
52615;DHT22;38508;53.158;6.614;2023-03-01T07:09:23;1.20;99.90
52615;DHT22;38508;53.158;6.614;2023-03-01T07:11:49;1.20;99.90
52615;DHT22;38508;53.158;6.614;2023-03-01T07:14:15;1.20;99.90
52615;DHT22;38508;53.158;6.614;2023-03-01T07:16:40;1.20;99.90
52615;DHT22;38508;53.158;6.614;2023-03-01T07:19:06;1.20;99.90
52615;DHT22;38508;53.158;6.614;2023-03-01T07:21:32;1.30;99.90
52615;DHT22;38508;53.158;6.614;2023-03-01T07:23:57;1.30;99.90
52615;DHT22;38508;53.158;6.614;2023-03-01T07:26:23;1.30;99.90
52615;DHT22;38508;53.158;6.614;2023-03-01T07:28:49;1.30;99.90
52615;DHT22;38508;53.158;6.614;2023-03-01T07:31:14;1.40;99.90
52615;DHT22;38508;53.158;6.614;2023-03-01T07:33:40;1.50;99.90
52615;DHT22;38508;53.158;6.614;2023-03-01T07:36:07;1.60;99.90
52615;DHT22;38508;53.158;6.614;2023-03-01T07:38:33;1.70;99.90
52615;DHT22;38508;53.158;6.614;2023-03-01T07:41:00;1.80;99.90
52615;DHT22;38508;53.158;6.614;2023-03-01T07:43:28;1.80;99.90
52615;DHT22;38508;53.158;6.614;2023-03-01T07:45:53;1.90;99.90
52615;DHT22;38508;53.158;6.614;2023-03-01T07:48:19;1.90;99.90
52615;DHT22;38508;53.158;6.614;2023-03-01T07:50:45;2.00;99.90
52615;DHT22;38508;53.158;6.614;2023-03-01T07:53:10;2.10;99.90
52615;DHT22;38508;53.158;6.614;2023-03-01T07:55:37;2.30;99.90
52615;DHT22;38508;53.158;6.614;2023-03-01T07:58:02;2.40;99.90
52615;DHT22;38508;53.158;6.614;2023-03-01T08:00:28;2.50;99.90
52615;DHT22;38508;53.158;6.614;2023-03-01T08:02:54;2.50;99.90
52615;DHT22;38508;53.158;6.614;2023-03-01T08:05:19;2.70;99.90
52615;DHT22;38508;53.158;6.614;2023-03-01T08:07:47;2.80;99.90
52615;DHT22;38508;53.158;6.614;2023-03-01T08:10:13;2.90;99.90
52615;DHT22;38508;53.158;6.614;2023-03-01T08:12:39;2.90;99.90
52615;DHT22;38508;53.158;6.614;2023-03-01T08:15:05;3.00;99.90
52615;DHT22;38508;53.158;6.614;2023-03-01T08:17:31;3.00;99.90
52615;DHT22;38508;53.158;6.614;2023-03-01T08:19:56;3.10;99.90
52615;DHT22;38508;53.158;6.614;2023-03-01T08:22:22;3.20;99.90
52615;DHT22;38508;53.158;6.614;2023-03-01T08:24:48;3.30;99.90
52615;DHT22;38508;53.158;6.614;2023-03-01T08:27:15;3.40;99.90
52615;DHT22;38508;53.158;6.614;2023-03-01T08:29:41;3.50;99.90
52615;DHT22;38508;53.158;6.614;2023-03-01T08:32:07;3.50;99.90
52615;DHT22;38508;53.158;6.614;2023-03-01T08:34:32;3.70;99.90
52615;DHT22;38508;53.158;6.614;2023-03-01T08:37:01;3.80;99.90
52615;DHT22;38508;53.158;6.614;2023-03-01T08:39:27;3.90;99.90
52615;DHT22;38508;53.158;6.614;2023-03-01T08:41:52;4.00;99.90
52615;DHT22;38508;53.158;6.614;2023-03-01T08:44:18;4.20;99.90
52615;DHT22;38508;53.158;6.614;2023-03-01T08:46:46;4.30;99.90
52615;DHT22;38508;53.158;6.614;2023-03-01T08:49:20;4.30;99.90
52615;DHT22;38508;53.158;6.614;2023-03-01T08:51:46;4.30;99.90
52615;DHT22;38508;53.158;6.614;2023-03-01T08:54:18;4.40;99.90
52615;DHT22;38508;53.158;6.614;2023-03-01T08:56:44;4.50;99.90
52615;DHT22;38508;53.158;6.614;2023-03-01T08:59:11;4.60;99.90
52615;DHT22;38508;53.158;6.614;2023-03-01T09:01:37;4.70;99.90
52615;DHT22;38508;53.158;6.614;2023-03-01T09:04:03;4.70;99.90
52615;DHT22;38508;53.158;6.614;2023-03-01T09:06:33;4.80;99.90
52615;DHT22;38508;53.158;6.614;2023-03-01T09:09:00;4.80;99.90
52615;DHT22;38508;53.158;6.614;2023-03-01T09:11:25;4.80;99.90
52615;DHT22;38508;53.158;6.614;2023-03-01T09:13:51;4.80;99.90
52615;DHT22;38508;53.158;6.614;2023-03-01T09:16:19;4.80;99.90
52615;DHT22;38508;53.158;6.614;2023-03-01T09:18:48;4.80;99.90
52615;DHT22;38508;53.158;6.614;2023-03-01T09:21:16;5.00;99.90
52615;DHT22;38508;53.158;6.614;2023-03-01T09:23:43;5.00;99.90
52615;DHT22;38508;53.158;6.614;2023-03-01T09:26:12;5.20;99.90
52615;DHT22;38508;53.158;6.614;2023-03-01T09:28:39;5.30;99.90
52615;DHT22;38508;53.158;6.614;2023-03-01T09:31:06;5.50;99.90
52615;DHT22;38508;53.158;6.614;2023-03-01T09:33:32;5.50;99.90
52615;DHT22;38508;53.158;6.614;2023-03-01T09:36:06;5.70;99.90
52615;DHT22;38508;53.158;6.614;2023-03-01T09:38:33;5.80;99.90
52615;DHT22;38508;53.158;6.614;2023-03-01T09:41:02;5.90;99.90
52615;DHT22;38508;53.158;6.614;2023-03-01T09:43:42;6.00;99.90
52615;DHT22;38508;53.158;6.614;2023-03-01T09:46:12;6.10;99.90
52615;DHT22;38508;53.158;6.614;2023-03-01T09:48:46;6.00;99.90
52615;DHT22;38508;53.158;6.614;2023-03-01T09:51:35;6.20;99.90
52615;DHT22;38508;53.158;6.614;2023-03-01T09:54:02;6.20;99.90
52615;DHT22;38508;53.158;6.614;2023-03-01T09:56:41;6.00;99.90
52615;DHT22;38508;53.158;6.614;2023-03-01T09:59:23;6.10;99.90
52615;DHT22;38508;53.158;6.614;2023-03-01T10:01:59;6.40;99.90
52615;DHT22;38508;53.158;6.614;2023-03-01T10:09:41;6.60;99.90
52615;DHT22;38508;53.158;6.614;2023-03-01T10:12:17;6.60;99.90
52615;DHT22;38508;53.158;6.614;2023-03-01T10:17:24;6.90;99.90
52615;DHT22;38508;53.158;6.614;2023-03-01T10:19:50;6.80;99.90
52615;DHT22;38508;53.158;6.614;2023-03-01T10:22:22;6.90;99.90
52615;DHT22;38508;53.158;6.614;2023-03-01T10:24:51;7.10;99.90
52615;DHT22;38508;53.158;6.614;2023-03-01T10:27:23;7.30;99.90
52615;DHT22;38508;53.158;6.614;2023-03-01T10:30:16;7.50;99.90
52615;DHT22;38508;53.158;6.614;2023-03-01T10:32:46;7.50;99.90
52615;DHT22;38508;53.158;6.614;2023-03-01T10:35:26;7.70;99.90
52615;DHT22;38508;53.158;6.614;2023-03-01T10:40:31;7.70;99.90
52615;DHT22;38508;53.158;6.614;2023-03-01T10:42:58;7.60;99.90
52615;DHT22;38508;53.158;6.614;2023-03-01T10:50:39;8.60;99.90
52615;DHT22;38508;53.158;6.614;2023-03-01T10:53:20;8.80;99.90
52615;DHT22;38508;53.158;6.614;2023-03-01T10:55:46;9.00;99.90
52615;DHT22;38508;53.158;6.614;2023-03-01T10:58:19;9.20;99.90
52615;DHT22;38508;53.158;6.614;2023-03-01T11:00:57;9.60;99.90
52615;DHT22;38508;53.158;6.614;2023-03-01T11:08:41;10.20;99.90
52615;DHT22;38508;53.158;6.614;2023-03-01T11:11:16;10.20;99.90
52615;DHT22;38508;53.158;6.614;2023-03-01T11:13:55;10.30;99.90
52615;DHT22;38508;53.158;6.614;2023-03-01T11:16:30;10.30;99.90
52615;DHT22;38508;53.158;6.614;2023-03-01T11:21:26;10.60;99.90
52615;DHT22;38508;53.158;6.614;2023-03-01T11:23:53;10.60;99.90
52615;DHT22;38508;53.158;6.614;2023-03-01T11:26:19;10.70;99.90
52615;DHT22;38508;53.158;6.614;2023-03-01T11:28:50;10.50;99.90
52615;DHT22;38508;53.158;6.614;2023-03-01T11:31:17;10.60;99.90
52615;DHT22;38508;53.158;6.614;2023-03-01T11:34:12;10.80;99.90
52615;DHT22;38508;53.158;6.614;2023-03-01T11:39:36;11.20;99.90
52615;DHT22;38508;53.158;6.614;2023-03-01T11:42:22;11.40;99.90
52615;DHT22;38508;53.158;6.614;2023-03-01T11:44:54;11.50;99.90
52615;DHT22;38508;53.158;6.614;2023-03-01T11:50:15;12.00;99.90
52615;DHT22;38508;53.158;6.614;2023-03-01T11:52:56;11.50;99.90
52615;DHT22;38508;53.158;6.614;2023-03-01T12:06:59;11.50;99.90
52615;DHT22;38508;53.158;6.614;2023-03-01T12:12:41;11.50;99.90
52615;DHT22;38508;53.158;6.614;2023-03-01T12:18:07;11.50;99.90
52615;DHT22;38508;53.158;6.614;2023-03-01T12:20:55;11.90;99.90
52615;DHT22;38508;53.158;6.614;2023-03-01T12:29:16;13.70;99.90
52615;DHT22;38508;53.158;6.614;2023-03-01T12:40:23;14.00;99.90
52615;DHT22;38508;53.158;6.614;2023-03-01T12:48:27;14.70;99.90
52615;DHT22;38508;53.158;6.614;2023-03-01T12:50:59;14.90;99.90
52615;DHT22;38508;53.158;6.614;2023-03-01T12:53:57;15.00;99.90
52615;DHT22;38508;53.158;6.614;2023-03-01T12:56:24;15.20;99.90
52615;DHT22;38508;53.158;6.614;2023-03-01T12:59:12;15.50;99.90
52615;DHT22;38508;53.158;6.614;2023-03-01T13:02:05;15.10;99.90
52615;DHT22;38508;53.158;6.614;2023-03-01T13:05:07;15.90;99.90
52615;DHT22;38508;53.158;6.614;2023-03-01T13:13:01;15.90;99.90
52615;DHT22;38508;53.158;6.614;2023-03-01T13:15:29;16.00;99.90
52615;DHT22;38508;53.158;6.614;2023-03-01T13:18:42;16.00;99.90
52615;DHT22;38508;53.158;6.614;2023-03-01T13:20:45;16.10;99.90
52615;DHT22;38508;53.158;6.614;2023-03-01T13:28:47;16.10;99.90
52615;DHT22;38508;53.158;6.614;2023-03-01T13:33:57;15.70;99.90
52615;DHT22;38508;53.158;6.614;2023-03-01T13:38:59;15.50;99.90
52615;DHT22;38508;53.158;6.614;2023-03-01T13:44:25;15.80;99.90
52615;DHT22;38508;53.158;6.614;2023-03-01T13:46:53;15.00;99.90
52615;DHT22;38508;53.158;6.614;2023-03-01T13:49:22;14.80;99.90
52615;DHT22;38508;53.158;6.614;2023-03-01T13:51:50;14.40;99.90
52615;DHT22;38508;53.158;6.614;2023-03-01T13:54:28;14.10;99.90
52615;DHT22;38508;53.158;6.614;2023-03-01T13:56:56;14.10;99.90
52615;DHT22;38508;53.158;6.614;2023-03-01T13:59:23;13.70;99.90
52615;DHT22;38508;53.158;6.614;2023-03-01T14:01:53;13.40;99.90
52615;DHT22;38508;53.158;6.614;2023-03-01T14:04:27;13.40;99.90
52615;DHT22;38508;53.158;6.614;2023-03-01T14:07:16;13.00;99.90
52615;DHT22;38508;53.158;6.614;2023-03-01T14:09:45;12.70;99.90
52615;DHT22;38508;53.158;6.614;2023-03-01T14:12:33;12.40;99.90
52615;DHT22;38508;53.158;6.614;2023-03-01T14:15:15;12.40;99.90
52615;DHT22;38508;53.158;6.614;2023-03-01T14:20:32;11.90;99.90
52615;DHT22;38508;53.158;6.614;2023-03-01T14:23:02;11.90;99.90
52615;DHT22;38508;53.158;6.614;2023-03-01T14:25:35;11.70;99.90
52615;DHT22;38508;53.158;6.614;2023-03-01T14:28:17;11.60;99.90
52615;DHT22;38508;53.158;6.614;2023-03-01T14:31:01;11.60;99.90
52615;DHT22;38508;53.158;6.614;2023-03-01T14:33:33;11.70;99.90
52615;DHT22;38508;53.158;6.614;2023-03-01T14:36:05;11.50;99.90
52615;DHT22;38508;53.158;6.614;2023-03-01T14:38:42;11.60;99.90
52615;DHT22;38508;53.158;6.614;2023-03-01T14:41:17;11.70;99.90
52615;DHT22;38508;53.158;6.614;2023-03-01T14:44:14;11.60;99.90
52615;DHT22;38508;53.158;6.614;2023-03-01T14:46:43;11.20;99.90
52615;DHT22;38508;53.158;6.614;2023-03-01T14:49:19;11.20;99.90
52615;DHT22;38508;53.158;6.614;2023-03-01T14:52:06;11.30;99.90
52615;DHT22;38508;53.158;6.614;2023-03-01T14:54:47;11.30;99.90
52615;DHT22;38508;53.158;6.614;2023-03-01T14:57:20;11.30;99.90
52615;DHT22;38508;53.158;6.614;2023-03-01T14:59:47;11.10;99.90
52615;DHT22;38508;53.158;6.614;2023-03-01T15:02:17;11.20;99.90
52615;DHT22;38508;53.158;6.614;2023-03-01T15:04:51;11.30;99.90
52615;DHT22;38508;53.158;6.614;2023-03-01T15:07:18;11.40;99.90
52615;DHT22;38508;53.158;6.614;2023-03-01T15:09:45;11.60;99.90
52615;DHT22;38508;53.158;6.614;2023-03-01T15:12:36;11.70;99.90
52615;DHT22;38508;53.158;6.614;2023-03-01T15:16:01;11.60;99.90
52615;DHT22;38508;53.158;6.614;2023-03-01T15:20:42;11.20;99.90
52615;DHT22;38508;53.158;6.614;2023-03-01T15:23:25;11.10;99.90
52615;DHT22;38508;53.158;6.614;2023-03-01T15:25:53;11.00;99.90
52615;DHT22;38508;53.158;6.614;2023-03-01T15:30:57;10.70;99.90
52615;DHT22;38508;53.158;6.614;2023-03-01T15:35:56;10.70;99.90
52615;DHT22;38508;53.158;6.614;2023-03-01T15:40:55;10.60;99.90
52615;DHT22;38508;53.158;6.614;2023-03-01T15:43:41;11.00;99.90
52615;DHT22;38508;53.158;6.614;2023-03-01T15:46:22;11.40;99.90
52615;DHT22;38508;53.158;6.614;2023-03-01T15:48:52;12.30;99.90
52615;DHT22;38508;53.158;6.614;2023-03-01T15:51:22;13.00;99.90
52615;DHT22;38508;53.158;6.614;2023-03-01T15:53:51;13.40;99.90
52615;DHT22;38508;53.158;6.614;2023-03-01T15:56:18;14.20;99.90
52615;DHT22;38508;53.158;6.614;2023-03-01T15:58:44;14.60;99.90
52615;DHT22;38508;53.158;6.614;2023-03-01T16:01:14;15.50;99.90
52615;DHT22;38508;53.158;6.614;2023-03-01T16:03:42;15.80;99.90
52615;DHT22;38508;53.158;6.614;2023-03-01T16:06:11;16.10;99.90
52615;DHT22;38508;53.158;6.614;2023-03-01T16:08:38;16.00;99.90
52615;DHT22;38508;53.158;6.614;2023-03-01T16:11:14;16.00;99.90
52615;DHT22;38508;53.158;6.614;2023-03-01T16:13:40;15.80;99.90
52615;DHT22;38508;53.158;6.614;2023-03-01T16:16:08;15.30;99.90
52615;DHT22;38508;53.158;6.614;2023-03-01T16:18:38;14.50;99.90
52615;DHT22;38508;53.158;6.614;2023-03-01T16:21:04;14.60;99.90
52615;DHT22;38508;53.158;6.614;2023-03-01T16:23:31;14.90;99.90
52615;DHT22;38508;53.158;6.614;2023-03-01T16:26:00;14.90;99.90
52615;DHT22;38508;53.158;6.614;2023-03-01T16:28:26;15.10;99.90
52615;DHT22;38508;53.158;6.614;2023-03-01T16:30:51;15.60;99.90
52615;DHT22;38508;53.158;6.614;2023-03-01T16:33:17;15.90;99.90
52615;DHT22;38508;53.158;6.614;2023-03-01T16:35:43;16.00;99.90
52615;DHT22;38508;53.158;6.614;2023-03-01T16:38:10;15.70;99.90
52615;DHT22;38508;53.158;6.614;2023-03-01T16:40:35;15.40;99.90
52615;DHT22;38508;53.158;6.614;2023-03-01T16:43:01;14.80;99.90
52615;DHT22;38508;53.158;6.614;2023-03-01T16:45:33;13.90;99.90
52615;DHT22;38508;53.158;6.614;2023-03-01T16:47:59;13.20;99.90
52615;DHT22;38508;53.158;6.614;2023-03-01T16:50:25;12.50;99.90
52615;DHT22;38508;53.158;6.614;2023-03-01T16:52:50;12.10;99.90
52615;DHT22;38508;53.158;6.614;2023-03-01T16:55:16;11.80;99.90
52615;DHT22;38508;53.158;6.614;2023-03-01T16:57:42;11.40;99.90
52615;DHT22;38508;53.158;6.614;2023-03-01T17:00:09;11.40;99.90
52615;DHT22;38508;53.158;6.614;2023-03-01T17:02:36;11.30;99.90
52615;DHT22;38508;53.158;6.614;2023-03-01T17:05:03;11.10;99.90
52615;DHT22;38508;53.158;6.614;2023-03-01T17:07:33;10.80;99.90
52615;DHT22;38508;53.158;6.614;2023-03-01T17:10:00;10.60;99.90
52615;DHT22;38508;53.158;6.614;2023-03-01T17:12:26;10.50;99.90
52615;DHT22;38508;53.158;6.614;2023-03-01T17:14:52;10.50;99.90
52615;DHT22;38508;53.158;6.614;2023-03-01T17:17:19;10.40;99.90
52615;DHT22;38508;53.158;6.614;2023-03-01T17:19:45;10.20;99.90
52615;DHT22;38508;53.158;6.614;2023-03-01T17:22:12;10.00;99.90
52615;DHT22;38508;53.158;6.614;2023-03-01T17:24:42;10.00;99.90
52615;DHT22;38508;53.158;6.614;2023-03-01T17:27:08;9.90;99.90
52615;DHT22;38508;53.158;6.614;2023-03-01T17:29:34;9.70;99.90
52615;DHT22;38508;53.158;6.614;2023-03-01T17:32:00;9.50;99.90
52615;DHT22;38508;53.158;6.614;2023-03-01T17:34:35;9.40;99.90
52615;DHT22;38508;53.158;6.614;2023-03-01T17:37:01;9.50;99.90
52615;DHT22;38508;53.158;6.614;2023-03-01T17:39:27;9.30;99.90
52615;DHT22;38508;53.158;6.614;2023-03-01T17:42:01;9.10;99.90
52615;DHT22;38508;53.158;6.614;2023-03-01T17:44:26;9.10;99.90
52615;DHT22;38508;53.158;6.614;2023-03-01T17:46:52;9.00;99.90
52615;DHT22;38508;53.158;6.614;2023-03-01T17:49:18;8.80;99.90